TAF SBCY
SBCY 090840Z 0912/1012 34005KT 9999 SCT020 TX35/0917Z TN25/1009Z BECMG 0912/0914 31006KT BECMG 0918/0920 33006KT BECMG 1001/1003 31005KT BECMG 1006/1008 35005KT RMK PGW=
METAR SBCY
SBCY 091100Z 00000KT CAVOK 28/23 Q1010=
SBCY 091000Z 06002KT CAVOK 26/24 Q1010=
SBCY 090900Z 25001KT CAVOK 25/24 Q1009=
SBCY 090800Z 15002KT 9999 FEW020 SCT080 25/24 Q1008=
SBCY 090700Z 00000KT 9999 FEW020 SCT080 25/23 Q1008=
WC SBCY
WS SBCY
WV SBCY